createdAt,value
2018-04-14T00:01:41.798Z,6.80
2018-04-14T00:04:09.833Z,6.70
2018-04-14T00:06:36.614Z,6.70
2018-04-14T00:09:03.688Z,6.70
2018-04-14T00:11:30.633Z,6.70
2018-04-14T00:13:56.904Z,6.70
2018-04-14T00:16:23.801Z,6.70
2018-04-14T00:18:51.568Z,6.60
2018-04-14T00:21:18.665Z,6.70
2018-04-14T00:23:47.353Z,6.70
2018-04-14T00:26:14.375Z,6.60
2018-04-14T00:28:41.689Z,6.50
2018-04-14T00:31:07.966Z,6.50
2018-04-14T00:33:35.528Z,6.30
2018-04-14T00:36:03.094Z,6.30
2018-04-14T00:38:30.956Z,6.30
2018-04-14T00:40:58.622Z,6.30
2018-04-14T00:43:25.656Z,6.20
2018-04-14T00:45:52.016Z,6.20
2018-04-14T00:48:19.792Z,6.20
2018-04-14T00:50:46.836Z,6.20
2018-04-14T00:53:26.676Z,6.20
2018-04-14T00:55:53.965Z,6.10
2018-04-14T00:58:20.790Z,6.10
2018-04-14T01:00:47.775Z,6.10
2018-04-14T01:03:14.021Z,6.20
2018-04-14T01:05:40.937Z,6.20
2018-04-14T01:08:07.261Z,6.20
2018-04-14T01:10:35.035Z,6.20
2018-04-14T01:13:01.881Z,6.20
2018-04-14T01:15:29.445Z,6.10
2018-04-14T01:17:56.452Z,6.20
2018-04-14T01:20:23.469Z,6.10
2018-04-14T01:22:49.745Z,6.10
2018-04-14T01:25:15.998Z,6.10
2018-04-14T01:27:42.275Z,6.10
2018-04-14T01:30:08.591Z,6.20
2018-04-14T01:32:36.129Z,6.10
2018-04-14T01:35:02.393Z,6.10
2018-04-14T01:37:29.944Z,6.00
2018-04-14T01:39:57.611Z,6.00
2018-04-14T01:42:24.657Z,5.90
2018-04-14T01:44:51.657Z,5.90
2018-04-14T01:47:18.469Z,5.80
2018-04-14T01:49:45.469Z,5.90
2018-04-14T01:52:11.734Z,5.90
2018-04-14T01:54:38.510Z,5.90
2018-04-14T01:57:04.757Z,5.90
2018-04-14T01:59:31.019Z,5.90
2018-04-14T02:01:57.274Z,6.00
2018-04-14T02:04:23.560Z,6.00
2018-04-14T02:06:50.501Z,6.00
2018-04-14T02:09:16.789Z,6.00
2018-04-14T02:11:44.677Z,6.00
2018-04-14T02:14:11.021Z,6.00
2018-04-14T02:16:38.478Z,6.00
2018-04-14T02:19:05.345Z,6.00
2018-04-14T02:21:32.344Z,6.10
2018-04-14T02:23:59.147Z,6.10
2018-04-14T02:26:26.141Z,6.10
2018-04-14T02:28:53.215Z,6.20
2018-04-14T02:31:19.461Z,6.20
2018-04-14T02:33:45.694Z,6.20
2018-04-14T02:36:12.357Z,6.20
2018-04-14T02:38:39.837Z,6.30
2018-04-14T02:41:06.084Z,6.30
2018-04-14T02:43:32.321Z,6.30
2018-04-14T02:45:58.599Z,6.30
2018-04-14T02:48:25.673Z,6.30
2018-04-14T02:50:52.665Z,6.40
2018-04-14T02:53:18.925Z,6.40
2018-04-14T02:55:45.917Z,6.40
2018-04-14T02:58:12.950Z,6.20
2018-04-14T03:00:39.181Z,6.20
2018-04-14T03:03:06.041Z,6.20
2018-04-14T03:05:33.622Z,6.20
2018-04-14T03:08:01.150Z,6.20
2018-04-14T03:10:27.933Z,6.20
2018-04-14T03:12:56.437Z,6.20
2018-04-14T03:15:23.479Z,6.20
2018-04-14T03:17:49.733Z,6.20
2018-04-14T03:20:16.550Z,6.20
2018-04-14T03:22:43.541Z,6.10
2018-04-14T03:25:09.844Z,6.10
2018-04-14T03:27:36.858Z,6.00
2018-04-14T03:30:03.161Z,6.00
2018-04-14T03:32:29.849Z,5.80
2018-04-14T03:34:57.264Z,6.00
2018-04-14T03:37:24.486Z,6.00
2018-04-14T03:39:52.649Z,6.00
2018-04-14T03:42:18.888Z,6.00
2018-04-14T03:44:45.916Z,6.00
2018-04-14T03:47:12.696Z,5.90
2018-04-14T03:49:38.976Z,5.90
2018-04-14T03:52:05.772Z,6.00
2018-04-14T03:54:33.232Z,5.90
2018-04-14T03:57:00.213Z,5.90
2018-04-14T03:59:26.489Z,5.90
2018-04-14T04:01:53.073Z,5.90
2018-04-14T04:04:19.344Z,5.80
2018-04-14T04:06:46.165Z,5.80
2018-04-14T04:09:12.418Z,5.80
2018-04-14T04:11:39.234Z,5.80
2018-04-14T04:14:06.217Z,5.80
2018-04-14T04:16:33.037Z,5.80
2018-04-14T04:19:12.713Z,5.90
2018-04-14T04:21:51.821Z,5.90
2018-04-14T04:24:30.864Z,6.00
2018-04-14T04:26:57.130Z,6.00
2018-04-14T04:29:24.349Z,6.10
2018-04-14T04:31:51.165Z,6.10
2018-04-14T04:34:18.165Z,6.20
2018-04-14T04:36:44.484Z,6.20
2018-04-14T04:39:11.350Z,6.20
2018-04-14T04:41:37.608Z,6.30
2018-04-14T04:44:03.965Z,6.30
2018-04-14T04:46:31.230Z,6.40
2018-04-14T04:48:58.750Z,6.50
2018-04-14T04:51:24.990Z,6.50
2018-04-14T04:53:51.781Z,6.50
2018-04-14T04:56:18.761Z,6.60
2018-04-14T04:58:45.014Z,6.60
2018-04-14T05:01:11.493Z,6.60
2018-04-14T05:03:38.503Z,6.70
2018-04-14T05:06:05.278Z,6.70
2018-04-14T05:08:31.535Z,6.80
2018-04-14T05:10:59.089Z,6.90
2018-04-14T05:13:26.656Z,6.90
2018-04-14T05:15:54.105Z,7.00
2018-04-14T05:18:20.349Z,7.00
2018-04-14T05:20:47.686Z,7.20
2018-04-14T05:23:14.558Z,7.20
2018-04-14T05:25:41.545Z,7.40
2018-04-14T05:28:08.331Z,7.40
2018-04-14T05:30:34.918Z,7.50
2018-04-14T05:33:01.728Z,7.60
2018-04-14T05:35:28.000Z,7.70
2018-04-14T05:37:55.285Z,7.80
2018-04-14T05:40:21.551Z,7.90
2018-04-14T05:42:47.858Z,8.00
2018-04-14T05:45:14.981Z,8.10
2018-04-14T05:47:42.014Z,8.30
2018-04-14T05:50:09.073Z,8.40
2018-04-14T05:52:36.077Z,8.50
2018-04-14T05:55:02.785Z,8.50
2018-04-14T05:57:29.581Z,8.50
2018-04-14T05:59:55.841Z,8.70
2018-04-14T06:02:22.857Z,8.90
2018-04-14T06:04:50.176Z,8.80
2018-04-14T06:07:16.457Z,9.00
2018-04-14T06:09:42.693Z,9.00
2018-04-14T06:12:09.373Z,9.10
2018-04-14T06:14:36.361Z,9.30
2018-04-14T06:17:03.158Z,9.30
2018-04-14T06:19:29.926Z,9.50
2018-04-14T06:21:57.584Z,9.70
2018-04-14T06:24:25.600Z,9.80
2018-04-14T06:26:52.269Z,9.80
2018-04-14T06:29:18.520Z,9.90
2018-04-14T06:31:45.213Z,10.00
2018-04-14T06:34:11.517Z,10.10
2018-04-14T06:36:38.527Z,10.30
2018-04-14T06:39:05.349Z,10.30
2018-04-14T06:41:32.164Z,10.40
2018-04-14T06:43:59.156Z,10.70
2018-04-14T06:46:25.440Z,10.70
2018-04-14T06:48:52.896Z,10.90
2018-04-14T06:51:19.164Z,10.90
2018-04-14T06:53:46.197Z,11.00
2018-04-14T06:56:13.249Z,11.20
2018-04-14T06:58:40.716Z,11.30
2018-04-14T07:01:08.222Z,11.40
2018-04-14T07:03:34.971Z,11.40
2018-04-14T07:06:01.553Z,11.50
2018-04-14T07:08:27.805Z,11.60
2018-04-14T07:10:55.253Z,11.80
2018-04-14T07:13:22.119Z,11.70
2018-04-14T07:15:49.760Z,11.90
2018-04-14T07:18:16.397Z,11.90
2018-04-14T07:20:43.045Z,12.00
2018-04-14T07:23:10.598Z,12.10
2018-04-14T07:25:37.488Z,12.10
2018-04-14T07:28:04.529Z,12.20
2018-04-14T07:30:31.527Z,12.40
2018-04-14T07:32:57.786Z,12.40
2018-04-14T07:35:24.358Z,12.50
2018-04-14T07:37:52.165Z,12.80
2018-04-14T07:40:18.490Z,12.80
2018-04-14T07:42:44.828Z,12.80
2018-04-14T07:45:11.101Z,12.90
2018-04-14T07:47:37.883Z,12.90
2018-04-14T07:50:04.892Z,13.10
2018-04-14T07:52:31.144Z,13.10
2018-04-14T07:54:58.116Z,13.20
2018-04-14T07:57:26.829Z,13.50
2018-04-14T07:59:53.072Z,13.60
2018-04-14T08:02:20.097Z,13.70
2018-04-14T08:04:47.896Z,14.10
2018-04-14T08:07:14.133Z,14.10
2018-04-14T08:09:40.397Z,14.20
2018-04-14T08:12:07.081Z,14.40
2018-04-14T08:14:49.557Z,14.60
2018-04-14T08:17:16.209Z,14.60
2018-04-14T08:19:43.198Z,14.70
2018-04-14T08:22:10.031Z,14.80
2018-04-14T08:24:37.134Z,15.00
2018-04-14T08:27:03.373Z,15.00
2018-04-14T08:29:30.260Z,15.10
2018-04-14T08:31:57.729Z,15.30
2018-04-14T08:34:24.729Z,15.40
2018-04-14T08:36:51.010Z,15.40
2018-04-14T08:39:18.692Z,15.70
2018-04-14T08:41:44.963Z,15.60
2018-04-14T08:44:11.280Z,15.80
2018-04-14T08:46:39.429Z,15.90
2018-04-14T08:49:07.103Z,16.10
2018-04-14T08:51:34.097Z,16.30
2018-04-14T08:54:01.213Z,16.20
2018-04-14T08:56:27.510Z,16.30
2018-04-14T08:58:54.356Z,16.40
2018-04-14T09:01:21.197Z,16.50
2018-04-14T09:03:47.932Z,16.60
2018-04-14T09:06:14.835Z,16.80
2018-04-14T09:08:41.886Z,17.00
2018-04-14T09:11:09.496Z,17.00
2018-04-14T09:13:36.449Z,17.00
2018-04-14T09:16:03.581Z,17.10
2018-04-14T09:18:30.448Z,17.10
2018-04-14T09:20:57.253Z,17.20
2018-04-14T09:23:24.265Z,17.30
2018-04-14T09:25:50.517Z,17.30
2018-04-14T09:28:17.073Z,17.40
2018-04-14T09:30:44.537Z,17.50
2018-04-14T09:33:11.963Z,17.70
2018-04-14T09:35:38.249Z,17.70
2018-04-14T09:38:04.516Z,17.70
2018-04-14T09:40:31.517Z,17.80
2018-04-14T09:42:58.591Z,17.90
2018-04-14T09:45:25.597Z,17.90
2018-04-14T09:47:52.273Z,17.90
2018-04-14T09:50:19.289Z,17.90
2018-04-14T09:52:46.517Z,17.90
2018-04-14T09:55:13.329Z,18.00
2018-04-14T09:57:40.904Z,18.20
2018-04-14T10:00:07.200Z,18.10
2018-04-14T10:02:39.623Z,18.20
2018-04-14T10:05:06.665Z,18.20
2018-04-14T10:07:33.352Z,18.30
2018-04-14T10:10:00.055Z,18.40
2018-04-14T10:12:26.775Z,18.50
2018-04-14T10:14:55.055Z,18.60
2018-04-14T10:17:22.639Z,18.60
2018-04-14T10:19:50.318Z,18.60
2018-04-14T10:22:16.602Z,18.60
2018-04-14T10:24:42.864Z,18.80
2018-04-14T10:27:09.913Z,18.90
2018-04-14T10:29:37.190Z,18.90
2018-04-14T10:32:03.590Z,18.90
2018-04-14T10:34:30.364Z,18.90
2018-04-14T10:36:57.425Z,19.00
2018-04-14T10:39:24.427Z,19.00
2018-04-14T10:41:50.694Z,19.00
2018-04-14T10:44:17.702Z,19.10
2018-04-14T10:46:44.559Z,19.10
2018-04-14T10:49:10.836Z,19.10
2018-04-14T10:51:37.831Z,19.20
2018-04-14T10:54:04.645Z,19.20
2018-04-14T10:56:32.159Z,19.30
2018-04-14T10:58:58.437Z,19.30
2018-04-14T11:01:26.007Z,19.60
2018-04-14T11:03:53.030Z,19.60
2018-04-14T11:06:20.534Z,19.60
2018-04-14T11:08:47.121Z,19.60
2018-04-14T11:11:13.910Z,19.60
2018-04-14T11:13:41.568Z,19.60
2018-04-14T11:16:09.450Z,19.60
2018-04-14T11:18:37.224Z,19.60
2018-04-14T11:21:03.990Z,19.60
2018-04-14T11:23:30.812Z,19.50
2018-04-14T11:25:57.854Z,19.60
2018-04-14T11:28:24.855Z,19.70
2018-04-14T11:30:51.350Z,19.70
2018-04-14T11:33:18.346Z,19.90
2018-04-14T11:35:44.726Z,19.90
2018-04-14T11:38:11.005Z,20.00
2018-04-14T11:40:37.249Z,20.00
2018-04-14T11:43:03.540Z,20.00
2018-04-14T11:45:30.805Z,20.20
2018-04-14T11:47:58.348Z,20.20
2018-04-14T11:50:25.437Z,20.30
2018-04-14T11:52:51.693Z,20.30
2018-04-14T11:55:18.422Z,20.40
2018-04-14T11:57:44.681Z,20.50
2018-04-14T12:00:11.595Z,20.60
2018-04-14T12:02:37.853Z,20.70
2018-04-14T12:05:04.558Z,20.70
2018-04-14T12:07:31.622Z,20.80
2018-04-14T12:09:59.398Z,20.90
2018-04-14T12:12:26.105Z,20.90
2018-04-14T12:14:52.366Z,21.00
2018-04-14T12:17:19.719Z,21.30
2018-04-14T12:19:47.301Z,21.30
2018-04-14T12:22:13.653Z,21.30
2018-04-14T12:24:39.945Z,21.30
2018-04-14T12:27:06.310Z,21.30
2018-04-14T12:29:32.549Z,21.40
2018-04-14T12:32:00.103Z,21.30
2018-04-14T12:34:27.557Z,21.40
2018-04-14T12:36:55.021Z,21.50
2018-04-14T12:39:22.628Z,21.60
2018-04-14T12:41:48.907Z,21.50
2018-04-14T12:44:15.869Z,21.60
2018-04-14T12:46:43.745Z,21.60
2018-04-14T12:49:10.797Z,21.70
2018-04-14T12:51:37.785Z,21.70
2018-04-14T12:54:04.805Z,21.70
2018-04-14T12:56:32.300Z,21.80
2018-04-14T12:58:58.912Z,21.80
2018-04-14T13:01:25.916Z,21.90
2018-04-14T13:03:52.807Z,21.80
2018-04-14T13:06:20.277Z,22.00
2018-04-14T13:08:47.717Z,22.00
2018-04-14T13:11:14.689Z,22.00
2018-04-14T13:13:41.697Z,22.20
2018-04-14T13:16:08.458Z,22.10
2018-04-14T13:18:36.749Z,22.30
2018-04-14T13:21:04.221Z,22.30
2018-04-14T13:23:31.877Z,22.40
2018-04-14T13:25:58.157Z,22.30
2018-04-14T13:28:24.433Z,22.50
2018-04-14T13:30:50.705Z,22.50
2018-04-14T13:33:17.026Z,22.60
2018-04-14T13:35:44.597Z,22.40
2018-04-14T13:38:11.605Z,22.50
2018-04-14T13:40:38.407Z,22.50
2018-04-14T13:43:04.677Z,22.20
2018-04-14T13:45:31.777Z,22.40
2018-04-14T13:47:59.152Z,22.60
2018-04-14T13:50:25.869Z,22.60
2018-04-14T13:52:52.149Z,22.40
2018-04-14T13:55:18.965Z,22.50
2018-04-14T13:57:46.048Z,22.30
2018-04-14T14:00:12.762Z,22.20
2018-04-14T14:02:39.798Z,22.40
2018-04-14T14:05:08.409Z,22.40
2018-04-14T14:07:35.980Z,22.60
2018-04-14T14:10:03.511Z,22.80
2018-04-14T14:12:30.965Z,23.10
2018-04-14T14:14:57.220Z,23.10
2018-04-14T14:17:23.906Z,23.30
2018-04-14T14:19:50.477Z,23.90
2018-04-14T14:22:16.767Z,24.40
2018-04-14T14:24:43.033Z,24.90
2018-04-14T14:27:09.304Z,25.20
2018-04-14T14:29:37.192Z,24.70
2018-04-14T14:32:04.231Z,25.60
2018-04-14T14:34:30.895Z,25.50
2018-04-14T14:36:57.891Z,25.40
2018-04-14T14:39:24.804Z,25.40
2018-04-14T14:41:51.076Z,25.50
2018-04-14T14:44:17.333Z,25.40
2018-04-14T14:46:44.321Z,25.50
2018-04-14T14:49:11.054Z,25.70
2018-04-14T14:51:38.053Z,26.30
2018-04-14T14:54:04.769Z,26.30
2018-04-14T14:56:31.503Z,26.50
2018-04-14T14:58:58.861Z,26.20
2018-04-14T15:01:25.941Z,26.00
2018-04-14T15:03:53.277Z,26.00
2018-04-14T15:06:20.832Z,26.70
2018-04-14T15:08:48.368Z,27.00
2018-04-14T15:11:15.145Z,27.00
2018-04-14T15:13:42.133Z,26.90
2018-04-14T15:16:08.830Z,26.80
2018-04-14T15:18:35.479Z,26.70
2018-04-14T15:21:03.059Z,27.10
2018-04-14T15:23:30.062Z,27.00
2018-04-14T15:25:56.321Z,27.10
2018-04-14T15:28:23.216Z,27.50
2018-04-14T15:30:50.415Z,27.60
2018-04-14T15:33:17.406Z,27.60
2018-04-14T15:35:44.322Z,27.60
2018-04-14T15:38:10.592Z,28.00
2018-04-14T15:40:37.561Z,27.90
2018-04-14T15:43:04.989Z,27.90
2018-04-14T15:45:32.000Z,27.90
2018-04-14T15:47:58.801Z,27.90
2018-04-14T15:50:25.069Z,27.80
2018-04-14T15:52:51.336Z,27.60
2018-04-14T15:55:18.790Z,27.70
2018-04-14T15:57:45.443Z,27.70
2018-04-14T16:00:11.703Z,27.70
2018-04-14T16:02:39.047Z,27.60
2018-04-14T16:05:06.647Z,27.80
2018-04-14T16:07:32.893Z,27.80
2018-04-14T16:09:59.608Z,27.80
2018-04-14T16:12:27.243Z,27.80
2018-04-14T16:14:53.917Z,27.80
2018-04-14T16:17:21.352Z,26.30
2018-04-14T16:19:47.614Z,26.20
2018-04-14T16:22:15.001Z,24.40
2018-04-14T16:24:41.680Z,24.40
2018-04-14T16:27:07.967Z,23.80
2018-04-14T16:29:34.860Z,23.20
2018-04-14T16:32:01.162Z,22.70
2018-04-14T16:34:27.885Z,22.40
2018-04-14T16:36:54.896Z,21.70
2018-04-14T16:39:21.677Z,21.60
2018-04-14T16:41:49.268Z,21.20
2018-04-14T16:44:15.532Z,21.10
2018-04-14T16:46:42.641Z,21.00
2018-04-14T16:49:10.917Z,20.60
2018-04-14T16:51:38.264Z,20.40
2018-04-14T16:54:05.637Z,20.30
2018-04-14T16:56:32.636Z,20.10
2018-04-14T16:58:59.540Z,20.10
2018-04-14T17:01:27.010Z,19.70
2018-04-14T17:03:53.280Z,19.70
2018-04-14T17:06:20.093Z,19.50
2018-04-14T17:08:46.341Z,19.30
2018-04-14T17:11:13.260Z,19.10
2018-04-14T17:13:40.319Z,18.90
2018-04-14T17:16:07.327Z,18.90
2018-04-14T17:18:34.312Z,18.80
2018-04-14T17:21:01.809Z,18.70
2018-04-14T17:23:29.207Z,18.70
2018-04-14T17:25:56.115Z,18.60
2018-04-14T17:28:22.943Z,18.60
2018-04-14T17:30:49.940Z,18.50
2018-04-14T17:33:16.257Z,18.40
2018-04-14T17:35:42.563Z,18.40
2018-04-14T17:38:09.629Z,18.20
2018-04-14T17:40:37.197Z,18.10
2018-04-14T17:43:03.496Z,18.10
2018-04-14T17:45:30.505Z,18.00
2018-04-14T17:47:57.313Z,18.00
2018-04-14T17:50:24.991Z,17.60
2018-04-14T17:52:51.254Z,17.60
2018-04-14T17:55:18.077Z,17.20
2018-04-14T17:57:45.133Z,17.00
2018-04-14T18:00:11.414Z,16.90
2018-04-14T18:02:37.705Z,16.80
2018-04-14T18:05:04.595Z,16.60
2018-04-14T18:07:30.870Z,16.50
2018-04-14T18:09:57.871Z,16.20
2018-04-14T18:12:24.538Z,16.20
2018-04-14T18:14:51.309Z,16.10
2018-04-14T18:17:19.622Z,15.90
2018-04-14T18:19:46.329Z,15.90
2018-04-14T18:22:14.111Z,15.70
2018-04-14T18:24:41.105Z,15.60
2018-04-14T18:27:07.377Z,15.60
2018-04-14T18:29:33.935Z,15.50
2018-04-14T18:32:00.951Z,15.20
2018-04-14T18:34:27.304Z,15.20
2018-04-14T18:36:54.103Z,15.10
2018-04-14T18:39:20.912Z,15.00
2018-04-14T18:41:48.367Z,14.80
2018-04-14T18:44:15.365Z,14.70
2018-04-14T18:46:42.180Z,14.70
2018-04-14T18:49:09.566Z,14.40
2018-04-14T18:51:35.951Z,14.40
2018-04-14T18:54:03.264Z,14.30
2018-04-14T18:56:30.001Z,14.20
2018-04-14T18:58:56.904Z,14.10
2018-04-14T19:01:23.268Z,14.00
2018-04-14T19:03:50.274Z,13.90
2018-04-14T19:06:17.110Z,13.90
2018-04-14T19:08:43.434Z,13.80
2018-04-14T19:11:10.249Z,13.80
2018-04-14T19:13:38.199Z,13.70
2018-04-14T19:16:04.484Z,13.70
2018-04-14T19:18:31.300Z,13.70
2018-04-14T19:20:58.972Z,13.70
2018-04-14T19:23:26.045Z,13.70
2018-04-14T19:25:52.325Z,13.70
2018-04-14T19:28:18.601Z,13.70
2018-04-14T19:30:45.623Z,13.70
2018-04-14T19:33:11.976Z,13.70
2018-04-14T19:35:38.997Z,13.70
2018-04-14T19:38:20.753Z,13.70
2018-04-14T19:40:47.479Z,13.70
2018-04-14T19:43:15.021Z,13.60
2018-04-14T19:45:42.513Z,13.60
2018-04-14T19:48:09.373Z,13.60
2018-04-14T19:50:36.120Z,13.60
2018-04-14T19:53:02.945Z,13.50
2018-04-14T19:55:30.597Z,13.50
2018-04-14T19:57:58.365Z,13.40
2018-04-14T20:00:25.817Z,13.40
2018-04-14T20:02:52.086Z,13.40
2018-04-14T20:05:18.830Z,13.30
2018-04-14T20:07:45.157Z,13.20
2018-04-14T20:10:11.518Z,13.10
2018-04-14T20:12:38.249Z,13.10
2018-04-14T20:15:04.561Z,13.00
2018-04-14T20:17:32.039Z,12.90
2018-04-14T20:19:59.049Z,12.80
2018-04-14T20:22:25.872Z,12.80
2018-04-14T20:24:52.629Z,12.80
2018-04-14T20:27:18.948Z,12.70
2018-04-14T20:29:45.265Z,12.60
2018-04-14T20:32:11.612Z,12.60
2018-04-14T20:34:37.885Z,12.60
2018-04-14T20:37:04.289Z,12.50
2018-04-14T20:39:31.148Z,12.50
2018-04-14T20:41:58.278Z,12.40
2018-04-14T20:44:24.941Z,12.40
2018-04-14T20:46:52.261Z,12.30
2018-04-14T20:49:19.830Z,12.20
2018-04-14T20:51:48.314Z,12.20
2018-04-14T20:54:15.717Z,12.10
2018-04-14T20:56:42.145Z,12.10
2018-04-14T20:59:09.004Z,12.10
2018-04-14T21:01:35.335Z,12.00
2018-04-14T21:04:01.710Z,12.00
2018-04-14T21:06:28.480Z,11.90
2018-04-14T21:08:55.484Z,11.80
2018-04-14T21:11:22.336Z,11.80
2018-04-14T21:13:48.656Z,11.70
2018-04-14T21:16:15.464Z,11.70
2018-04-14T21:18:42.355Z,11.60
2018-04-14T21:21:09.214Z,11.60
2018-04-14T21:23:35.470Z,11.50
2018-04-14T21:26:01.740Z,11.50
2018-04-14T21:28:29.693Z,11.40
2018-04-14T21:30:56.146Z,11.40
2018-04-14T21:33:22.509Z,11.30
2018-04-14T21:35:49.020Z,11.20
2018-04-14T21:38:16.037Z,11.20
2018-04-14T21:40:42.957Z,11.20
2018-04-14T21:43:09.804Z,11.10
2018-04-14T21:45:36.632Z,11.00
2018-04-14T21:48:03.580Z,10.90
2018-04-14T21:50:30.197Z,10.90
2018-04-14T21:52:56.470Z,10.90
2018-04-14T21:55:23.048Z,10.90
2018-04-14T21:57:50.148Z,10.80
2018-04-14T22:00:18.149Z,10.80
2018-04-14T22:02:44.400Z,10.70
2018-04-14T22:05:11.097Z,10.70
2018-04-14T22:07:38.088Z,10.40
2018-04-14T22:10:04.343Z,10.40
2018-04-14T22:12:31.312Z,10.30
2018-04-14T22:14:57.605Z,10.30
2018-04-14T22:17:24.629Z,10.30
2018-04-14T22:19:51.685Z,10.20
2018-04-14T22:22:19.134Z,10.20
2018-04-14T22:24:46.126Z,10.20
2018-04-14T22:27:12.365Z,10.10
2018-04-14T22:29:38.953Z,10.10
2018-04-14T22:32:05.238Z,10.00
2018-04-14T22:34:31.533Z,10.00
2018-04-14T22:36:58.798Z,10.00
2018-04-14T22:39:26.662Z,9.90
2018-04-14T22:41:54.129Z,9.80
2018-04-14T22:44:21.717Z,9.80
2018-04-14T22:46:48.606Z,9.70
2018-04-14T22:49:15.326Z,9.70
2018-04-14T22:51:42.129Z,9.70
2018-04-14T22:54:09.469Z,9.70
2018-04-14T22:56:36.273Z,9.60
2018-04-14T22:59:03.628Z,9.70
2018-04-14T23:01:30.613Z,9.70
2018-04-14T23:03:56.894Z,9.60
2018-04-14T23:06:24.521Z,9.70
2018-04-14T23:08:51.641Z,9.80
2018-04-14T23:11:18.579Z,9.70
2018-04-14T23:13:44.877Z,9.90
2018-04-14T23:16:11.146Z,10.00
2018-04-14T23:18:38.382Z,10.00
2018-04-14T23:21:05.899Z,10.00
2018-04-14T23:23:32.924Z,10.10
2018-04-14T23:25:59.614Z,10.10
2018-04-14T23:28:26.398Z,10.10
2018-04-14T23:30:52.653Z,10.10
2018-04-14T23:33:18.899Z,10.30
2018-04-14T23:35:46.125Z,10.30
2018-04-14T23:38:12.389Z,10.30
2018-04-14T23:40:38.648Z,10.30
2018-04-14T23:43:05.431Z,10.30
2018-04-14T23:45:32.834Z,10.30
2018-04-14T23:48:00.355Z,10.30
2018-04-14T23:50:27.672Z,10.30
2018-04-14T23:52:53.947Z,10.30
2018-04-14T23:55:21.923Z,10.20
2018-04-14T23:57:48.922Z,10.20
